Time;durP1;ratioP1;P1;durP2;ratioP2;P2;SDS_P1;SDS_P2;PMS_P1;PMS_P2;Temp;Humidity;BMP_temperature;BMP_pressure;BME280_temperature;BME280_humidity;BME280_pressure;Samples;Min_cycle;Max_cycle;Signal;HPM_P1;HPM_P2
2024/04/12 00:01:20;;;;;;;10.00;4.67;;;7.30;99.90;;;;;;5483018;26;21304;-69
2024/04/12 00:03:48;;;;;;;11.20;5.10;;;7.10;99.90;;;;;;5481923;26;21075;-69
2024/04/12 00:06:18;;;;;;;10.03;4.60;;;7.10;99.90;;;;;;5483267;26;20512;-68
2024/04/12 00:08:46;;;;;;;10.23;4.83;;;7.00;99.90;;;;;;5482556;26;20862;-70
2024/04/12 00:11:18;;;;;;;14.90;5.33;;;6.90;99.90;;;;;;5482954;26;20512;-70
2024/04/12 00:13:47;;;;;;;13.60;5.87;;;6.90;99.90;;;;;;5482661;26;20513;-70
2024/04/12 00:16:23;;;;;;;10.53;5.30;;;7.10;99.90;;;;;;5482609;26;20468;-69
2024/04/12 00:19:02;;;;;;;10.50;5.23;;;7.10;99.90;;;;;;5482320;26;20543;-71
2024/04/12 00:21:37;;;;;;;12.27;5.07;;;7.00;99.90;;;;;;5482567;26;20481;-70
2024/04/12 00:24:06;;;;;;;12.90;5.40;;;7.00;99.90;;;;;;5482671;26;20476;-70
2024/04/12 00:26:35;;;;;;;12.37;5.07;;;7.00;99.90;;;;;;5481977;26;20551;-70
2024/04/12 00:29:07;;;;;;;11.53;4.93;;;6.80;99.90;;;;;;5482254;26;20469;-70
2024/04/12 00:31:42;;;;;;;11.10;5.70;;;6.60;99.90;;;;;;5482146;26;21003;-70
2024/04/12 00:34:09;;;;;;;14.43;5.23;;;6.60;99.90;;;;;;5481919;26;20471;-70
2024/04/12 00:36:42;;;;;;;13.70;5.30;;;6.60;99.90;;;;;;5480432;26;20810;-70
2024/04/12 00:39:20;;;;;;;14.03;5.47;;;6.70;99.90;;;;;;5482627;26;20471;-71
2024/04/12 00:41:49;;;;;;;10.97;5.60;;;6.60;99.90;;;;;;5481928;26;20454;-70
2024/04/12 00:44:17;;;;;;;11.13;5.13;;;6.60;99.90;;;;;;5481910;26;21007;-69
2024/04/12 00:46:51;;;;;;;11.90;5.17;;;6.50;99.90;;;;;;5481741;26;20531;-71
2024/04/12 00:49:18;;;;;;;10.80;5.20;;;6.60;99.90;;;;;;5482314;26;20513;-70
2024/04/12 00:51:50;;;;;;;15.47;5.30;;;6.70;99.90;;;;;;5480557;26;20462;-70
2024/04/12 00:54:17;;;;;;;12.70;5.77;;;6.60;99.90;;;;;;5481566;26;20477;-70
2024/04/12 00:56:50;;;;;;;14.00;6.93;;;6.50;99.90;;;;;;5481526;26;20454;-70
2024/04/12 00:59:17;;;;;;;12.40;5.83;;;6.70;99.90;;;;;;5482023;26;20621;-70
2024/04/12 01:01:55;;;;;;;10.67;5.77;;;6.90;99.90;;;;;;5481695;26;20488;-70
2024/04/12 01:04:23;;;;;;;13.50;6.07;;;6.90;99.90;;;;;;5481143;26;20469;-69
2024/04/12 01:06:53;;;;;;;11.40;5.50;;;6.90;99.90;;;;;;5480978;26;20521;-70
2024/04/12 01:09:21;;;;;;;11.30;5.33;;;6.90;99.90;;;;;;5481947;26;21130;-70
2024/04/12 01:11:51;;;;;;;13.90;6.00;;;6.70;99.90;;;;;;5482247;26;20517;-70
2024/04/12 01:14:18;;;;;;;11.30;5.20;;;6.60;99.90;;;;;;5481541;26;20531;-70
2024/04/12 01:16:54;;;;;;;12.73;5.53;;;6.50;99.90;;;;;;5479928;26;20842;-70
2024/04/12 01:19:27;;;;;;;12.20;5.37;;;6.40;99.90;;;;;;5482029;26;20892;-71
2024/04/12 01:21:56;;;;;;;10.60;4.87;;;6.60;99.90;;;;;;5481844;26;20469;-70
2024/04/12 01:24:23;;;;;;;10.20;5.20;;;6.70;99.90;;;;;;5480966;26;20470;-70
2024/04/12 01:26:56;;;;;;;13.10;5.30;;;6.70;99.90;;;;;;5481129;26;20520;-70
2024/04/12 01:29:24;;;;;;;13.60;5.30;;;6.70;99.90;;;;;;5481636;26;20465;-71
2024/04/12 01:31:54;;;;;;;13.50;5.40;;;6.50;99.90;;;;;;5481760;26;20541;-70
2024/04/12 01:34:21;;;;;;;11.90;5.80;;;6.40;99.90;;;;;;5481917;26;20853;-70
2024/04/12 01:36:51;;;;;;;11.10;5.30;;;6.30;99.90;;;;;;5463515;26;20467;-70
2024/04/12 01:39:21;;;;;;;10.80;5.03;;;6.40;99.90;;;;;;5475169;26;21230;-71
2024/04/12 01:41:52;;;;;;;11.77;5.47;;;6.30;99.90;;;;;;5482362;26;20465;-70
2024/04/12 01:44:24;;;;;;;10.83;5.10;;;6.40;99.90;;;;;;5482528;26;20458;-70
2024/04/12 01:46:56;;;;;;;12.50;5.93;;;6.30;99.90;;;;;;5483110;26;20929;-70
2024/04/12 01:49:24;;;;;;;11.37;5.17;;;6.20;99.90;;;;;;5485868;26;20516;-70
2024/04/12 01:51:56;;;;;;;11.23;5.27;;;6.20;99.90;;;;;;5485929;26;20474;-70
2024/04/12 01:54:23;;;;;;;12.97;5.37;;;6.10;99.90;;;;;;5485449;26;20547;-70
2024/04/12 01:56:53;;;;;;;17.60;5.80;;;6.00;99.90;;;;;;5485121;26;20473;-70
2024/04/12 01:59:23;;;;;;;11.07;5.73;;;6.10;99.90;;;;;;5485284;26;20458;-70
2024/04/12 02:01:53;;;;;;;10.40;4.60;;;6.20;99.90;;;;;;5485250;26;20470;-70
2024/04/12 02:04:21;;;;;;;10.10;5.13;;;6.10;99.90;;;;;;5485076;26;20585;-71
2024/04/12 02:06:52;;;;;;;13.17;5.60;;;6.20;99.90;;;;;;5484768;26;20540;-69
2024/04/12 02:09:20;;;;;;;11.30;5.43;;;6.10;99.90;;;;;;5485151;26;20570;-69
2024/04/12 02:11:53;;;;;;;11.90;5.90;;;6.00;99.90;;;;;;5485234;26;20501;-70
2024/04/12 02:14:23;;;;;;;11.67;5.13;;;5.90;99.90;;;;;;5484531;26;20461;-69
2024/04/12 02:16:53;;;;;;;12.07;6.00;;;5.80;99.90;;;;;;5484083;26;20901;-70
2024/04/12 02:19:21;;;;;;;13.63;5.83;;;5.70;99.90;;;;;;5484952;26;20531;-69
2024/04/12 02:21:52;;;;;;;10.67;5.70;;;5.80;99.90;;;;;;5470379;26;20643;-69
2024/04/12 02:24:19;;;;;;;10.80;5.30;;;5.80;99.90;;;;;;5484364;26;20460;-69
2024/04/12 02:26:49;;;;;;;15.27;6.10;;;6.00;99.90;;;;;;5483856;26;20582;-69
2024/04/12 02:29:21;;;;;;;12.83;5.67;;;6.00;99.90;;;;;;5484805;26;20474;-69
2024/04/12 02:31:55;;;;;;;11.50;6.00;;;6.10;99.90;;;;;;5484634;26;20472;-70
2024/04/12 02:34:24;;;;;;;16.80;6.07;;;6.00;99.90;;;;;;5483921;26;20524;-70
2024/04/12 02:37:01;;;;;;;10.77;5.77;;;5.90;99.90;;;;;;5484043;26;20508;-70
2024/04/12 02:39:28;;;;;;;11.10;5.50;;;5.70;99.90;;;;;;5484488;26;20465;-70
2024/04/12 02:41:58;;;;;;;12.67;5.60;;;5.60;99.90;;;;;;5484344;26;20465;-70
2024/04/12 02:44:26;;;;;;;13.87;6.67;;;5.50;99.90;;;;;;5483329;26;20473;-70
2024/04/12 02:46:59;;;;;;;13.77;6.13;;;5.50;99.90;;;;;;5483901;26;20817;-70
2024/04/12 02:49:26;;;;;;;12.43;5.70;;;5.50;99.90;;;;;;5484148;26;20477;-70
2024/04/12 02:51:59;;;;;;;14.20;6.20;;;5.60;99.90;;;;;;5483931;26;20896;-70
2024/04/12 02:54:27;;;;;;;14.90;6.70;;;5.60;99.90;;;;;;5483170;26;20477;-70
2024/04/12 02:56:57;;;;;;;10.97;5.90;;;5.50;99.90;;;;;;5483619;26;20526;-71
2024/04/12 02:59:27;;;;;;;13.80;6.47;;;5.50;99.90;;;;;;5483212;26;20465;-70
2024/04/12 03:01:59;;;;;;;12.90;5.97;;;5.50;99.90;;;;;;5484515;26;20525;-69
2024/04/12 03:04:27;;;;;;;11.50;6.10;;;5.50;99.90;;;;;;5484231;26;20652;-71
2024/04/12 03:06:57;;;;;;;13.40;6.60;;;5.60;99.90;;;;;;5483827;26;20466;-71
2024/04/12 03:09:27;;;;;;;12.37;5.83;;;5.70;99.90;;;;;;5483858;26;20519;-71
2024/04/12 03:12:00;;;;;;;10.77;5.30;;;5.60;99.90;;;;;;5483763;26;20470;-70
2024/04/12 03:14:30;;;;;;;11.60;5.80;;;5.70;99.90;;;;;;5483385;26;20480;-70
2024/04/12 03:17:04;;;;;;;11.63;5.50;;;5.70;99.90;;;;;;5483392;26;20587;-70
2024/04/12 03:19:31;;;;;;;12.90;5.50;;;5.50;99.90;;;;;;5483526;26;21030;-70
2024/04/12 03:22:01;;;;;;;14.63;5.10;;;5.60;99.90;;;;;;5484181;26;21071;-70
2024/04/12 03:24:28;;;;;;;15.90;5.63;;;5.50;99.90;;;;;;5483114;26;20465;-70
2024/04/12 03:26:58;;;;;;;10.50;5.13;;;5.60;99.90;;;;;;5483475;26;20537;-70
2024/04/12 03:29:27;;;;;;;11.23;5.50;;;5.50;99.90;;;;;;5483422;26;20465;-71
2024/04/12 03:31:57;;;;;;;15.13;5.47;;;5.40;99.90;;;;;;5484194;26;20518;-70
2024/04/12 03:34:27;;;;;;;11.73;4.93;;;5.50;99.90;;;;;;5483260;26;20646;-70
2024/04/12 03:37:16;;;;;;;12.33;4.90;;;5.60;99.90;;;;;;5483372;26;20466;-70
2024/04/12 03:39:47;;;;;;;12.93;5.23;;;5.80;99.90;;;;;;5483351;26;20469;-70
2024/04/12 03:42:18;;;;;;;11.10;4.90;;;5.80;99.90;;;;;;5483430;26;20621;-70
2024/04/12 03:44:45;;;;;;;13.17;5.23;;;5.60;99.90;;;;;;5483181;26;20522;-70
2024/04/12 03:47:15;;;;;;;12.37;5.20;;;5.60;99.90;;;;;;5482842;26;20587;-70
2024/04/12 03:49:47;;;;;;;14.00;5.73;;;5.60;99.90;;;;;;5482615;26;20474;-70
2024/04/12 03:52:19;;;;;;;17.00;6.03;;;5.40;99.90;;;;;;5483354;26;20465;-70
2024/04/12 03:54:47;;;;;;;14.97;6.77;;;5.50;99.90;;;;;;5482209;26;20478;-70
2024/04/12 03:57:18;;;;;;;12.77;5.60;;;5.60;99.90;;;;;;5482837;26;20477;-71
2024/04/12 03:59:46;;;;;;;10.10;5.07;;;5.40;99.90;;;;;;5483135;26;20468;-70
2024/04/12 04:02:18;;;;;;;11.63;4.87;;;5.40;99.90;;;;;;5482839;26;20481;-70
2024/04/12 04:05:13;;;;;;;12.10;5.23;;;5.30;99.90;;;;;;5482763;26;20464;-71
2024/04/12 04:07:39;;;;;;;14.90;6.47;;;5.30;99.90;;;;;;5482101;26;21007;-70
2024/04/12 04:10:13;;;;;;;11.37;5.50;;;5.40;99.90;;;;;;5482651;26;20577;-70
2024/04/12 04:12:44;;;;;;;12.20;5.60;;;5.60;99.90;;;;;;5482967;26;20474;-71
2024/04/12 04:15:14;;;;;;;11.27;4.60;;;5.50;99.90;;;;;;5482852;26;20588;-71
2024/04/12 04:17:47;;;;;;;11.13;5.77;;;5.50;99.90;;;;;;5482634;26;20475;-71
2024/04/12 04:20:20;;;;;;;11.00;4.93;;;5.30;99.90;;;;;;5482817;26;20468;-71
2024/04/12 04:22:49;;;;;;;11.60;5.43;;;5.40;99.90;;;;;;5481675;26;21002;-70
2024/04/12 04:25:21;;;;;;;11.17;4.97;;;5.20;99.90;;;;;;5482344;26;20474;-70
2024/04/12 04:27:48;;;;;;;10.37;4.57;;;5.30;99.90;;;;;;5483544;26;20500;-69
2024/04/12 04:30:25;;;;;;;11.67;5.20;;;5.40;99.90;;;;;;5483066;26;20521;-70
2024/04/12 04:32:52;;;;;;;11.73;5.20;;;5.40;99.90;;;;;;5482581;26;21388;-71
2024/04/12 04:35:27;;;;;;;10.67;5.23;;;5.40;99.90;;;;;;5466193;26;20466;-71
2024/04/12 04:37:56;;;;;;;11.43;5.47;;;5.20;99.90;;;;;;5467853;26;20486;-69
2024/04/12 04:40:25;;;;;;;12.33;5.37;;;5.30;99.90;;;;;;5482097;26;20510;-70
2024/04/12 04:42:54;;;;;;;13.57;5.20;;;5.30;99.90;;;;;;5481651;26;20529;-69
2024/04/12 04:45:31;;;;;;;13.23;5.10;;;5.30;99.90;;;;;;5482942;26;20527;-69
2024/04/12 04:47:58;;;;;;;11.47;6.40;;;5.30;99.90;;;;;;5483061;26;20485;-70
2024/04/12 04:50:31;;;;;;;12.30;5.17;;;5.20;99.90;;;;;;5482579;26;20522;-70
2024/04/12 04:53:02;;;;;;;11.60;6.90;;;5.20;99.90;;;;;;5462909;26;22429;-69
2024/04/12 04:55:32;;;;;;;10.00;4.83;;;5.10;99.90;;;;;;5475719;26;20470;-69
2024/04/12 04:58:00;;;;;;;10.47;4.40;;;5.30;99.90;;;;;;5481257;26;20476;-70
2024/04/12 05:00:40;;;;;;;11.60;5.40;;;5.40;99.90;;;;;;5481772;26;20517;-70
2024/04/12 05:03:08;;;;;;;17.53;6.00;;;5.40;99.90;;;;;;5481584;26;20507;-71
2024/04/12 05:05:42;;;;;;;12.73;5.80;;;5.40;99.90;;;;;;5481652;26;20518;-70
2024/04/12 05:08:09;;;;;;;11.13;4.40;;;5.40;99.90;;;;;;5479979;26;20472;-69
2024/04/12 05:10:39;;;;;;;11.60;4.90;;;5.50;99.90;;;;;;5481800;26;20469;-69
2024/04/12 05:13:07;;;;;;;14.97;5.33;;;5.50;99.90;;;;;;5482212;26;20853;-69
2024/04/12 05:15:52;;;;;;;15.10;4.93;;;5.60;99.90;;;;;;5482055;26;20484;-70
2024/04/12 05:18:19;;;;;;;18.73;5.20;;;5.70;99.90;;;;;;5481563;26;21197;-70
2024/04/12 05:20:52;;;;;;;11.23;5.30;;;5.70;99.90;;;;;;5482017;26;20574;-70
2024/04/12 05:23:20;;;;;;;16.43;5.87;;;5.80;99.90;;;;;;5485187;26;21079;-70
2024/04/12 05:25:51;;;;;;;12.00;5.20;;;6.00;99.90;;;;;;5485929;26;21001;-70
2024/04/12 05:28:19;;;;;;;17.40;5.70;;;6.00;99.90;;;;;;5485826;26;21006;-71
2024/04/12 05:30:54;;;;;;;13.73;5.20;;;5.90;99.90;;;;;;5479983;26;20787;-69
2024/04/12 05:33:24;;;;;;;10.27;4.17;;;6.00;99.90;;;;;;5484920;26;20590;-69
2024/04/12 05:35:57;;;;;;;10.63;4.30;;;6.20;99.90;;;;;;5450375;26;20463;-70
2024/04/12 05:38:24;;;;;;;11.20;4.33;;;6.20;99.90;;;;;;5451996;26;20482;-70
2024/04/12 05:40:57;;;;;;;10.30;5.13;;;6.40;99.90;;;;;;5463604;26;20581;-70
2024/04/12 05:43:25;;;;;;;12.20;5.80;;;6.50;99.90;;;;;;5462962;26;20526;-70
2024/04/12 05:45:54;;;;;;;12.57;5.63;;;6.60;99.90;;;;;;5464387;26;20887;-70
2024/04/12 05:48:22;;;;;;;18.93;6.00;;;6.60;99.90;;;;;;5461806;26;20471;-70
2024/04/12 05:50:55;;;;;;;12.23;5.30;;;6.60;99.90;;;;;;5484816;26;20514;-71
2024/04/12 05:53:30;;;;;;;15.27;7.07;;;6.70;99.90;;;;;;5484785;26;20473;-70
2024/04/12 05:58:50;;;;;;;13.10;5.80;;;7.00;99.90;;;;;;5483519;26;20522;-70
2024/04/12 06:01:19;;;;;;;11.47;6.10;;;7.40;99.90;;;;;;5485008;26;20476;-70
2024/04/12 06:03:53;;;;;;;15.23;5.70;;;7.50;99.90;;;;;;5484558;26;20546;-70
2024/04/12 06:06:22;;;;;;;11.67;5.63;;;7.60;99.90;;;;;;5486058;26;20529;-69
2024/04/12 06:08:58;;;;;;;11.03;5.27;;;7.60;99.90;;;;;;5485157;26;20515;-70
2024/04/12 06:11:25;;;;;;;13.47;5.83;;;7.70;99.90;;;;;;5485675;26;20468;-70
2024/04/12 06:13:56;;;;;;;11.77;6.20;;;7.80;99.90;;;;;;5485767;26;21106;-68
2024/04/12 06:16:23;;;;;;;14.20;7.07;;;7.80;99.90;;;;;;5485587;26;20452;-68
2024/04/12 06:18:58;;;;;;;12.67;6.87;;;7.90;99.90;;;;;;5485633;26;20544;-68
2024/04/12 06:21:30;;;;;;;22.73;7.10;;;8.10;99.90;;;;;;5485619;26;20529;-68
2024/04/12 06:24:08;;;;;;;10.43;5.87;;;8.10;99.90;;;;;;5485132;26;20828;-68
2024/04/12 06:26:39;;;;;;;13.70;6.87;;;8.20;99.90;;;;;;5484927;26;20536;-68
2024/04/12 06:29:16;;;;;;;14.70;6.90;;;8.30;99.90;;;;;;5484765;26;20748;-68
2024/04/12 06:31:58;;;;;;;11.67;6.47;;;8.50;99.90;;;;;;5484888;26;21070;-69
2024/04/12 06:34:25;;;;;;;15.23;8.60;;;8.50;99.90;;;;;;5482851;26;20469;-69
2024/04/12 06:37:05;;;;;;;12.40;6.40;;;8.60;99.90;;;;;;5484269;26;20475;-68
2024/04/12 06:39:35;;;;;;;14.00;6.80;;;8.70;99.90;;;;;;5484850;26;20476;-68
2024/04/12 06:42:08;;;;;;;14.27;7.50;;;8.80;99.90;;;;;;5485008;26;20528;-68
2024/04/12 06:44:36;;;;;;;14.63;6.63;;;9.00;99.90;;;;;;5484575;26;20607;-68
2024/04/12 06:47:09;;;;;;;13.00;6.60;;;9.10;99.90;;;;;;5484057;26;20471;-68
2024/04/12 06:49:37;;;;;;;12.00;6.40;;;9.20;99.90;;;;;;5479757;26;20585;-68
2024/04/12 06:52:14;;;;;;;10.77;5.80;;;9.40;99.90;;;;;;5481446;26;20579;-69
2024/04/12 06:54:45;;;;;;;14.20;6.30;;;9.60;99.90;;;;;;5480694;26;20645;-68
2024/04/12 06:57:17;;;;;;;14.00;5.73;;;9.60;99.90;;;;;;5480757;26;21193;-68
2024/04/12 06:59:47;;;;;;;15.43;5.80;;;9.60;99.90;;;;;;5481012;26;20526;-68
2024/04/12 07:02:23;;;;;;;13.40;6.22;;;9.60;99.90;;;;;;5479788;26;20363;-69
2024/04/12 07:04:52;;;;;;;11.43;6.03;;;9.70;99.90;;;;;;5480182;26;20240;-69
2024/04/12 07:07:22;;;;;;;13.13;6.57;;;9.90;99.90;;;;;;5480547;26;20457;-69
2024/04/12 07:09:57;;;;;;;12.97;5.77;;;10.00;99.90;;;;;;5480873;26;20453;-69
2024/04/12 07:12:30;;;;;;;12.03;5.40;;;10.00;99.90;;;;;;5481103;26;20549;-69
2024/04/12 07:14:58;;;;;;;13.40;5.50;;;10.10;99.90;;;;;;5479924;26;20970;-68
2024/04/12 07:17:28;;;;;;;18.70;5.70;;;10.30;99.90;;;;;;5480652;26;20566;-69
2024/04/12 07:19:57;;;;;;;11.43;5.80;;;10.30;99.90;;;;;;5483181;26;20516;-68
2024/04/12 07:22:34;;;;;;;12.37;5.60;;;10.60;99.90;;;;;;5482803;26;20636;-69
2024/04/12 07:25:07;;;;;;;11.83;5.00;;;10.70;99.90;;;;;;5482231;26;20525;-69
2024/04/12 07:27:41;;;;;;;12.10;5.90;;;10.90;99.90;;;;;;5482396;26;20544;-68
2024/04/12 07:30:08;;;;;;;14.97;6.20;;;10.90;99.90;;;;;;5483105;26;20524;-69
2024/04/12 07:32:38;;;;;;;12.00;5.23;;;11.20;99.90;;;;;;5483110;26;20529;-69
2024/04/12 07:35:22;;;;;;;9.67;5.30;;;11.30;99.90;;;;;;5483059;26;20469;-70
2024/04/12 07:37:54;;;;;;;11.27;5.53;;;11.30;99.90;;;;;;5481876;26;20556;-69
2024/04/12 07:40:34;;;;;;;10.03;4.53;;;11.40;99.90;;;;;;5482571;26;21098;-69
2024/04/12 07:43:08;;;;;;;10.73;4.43;;;11.50;99.90;;;;;;5481926;26;20927;-69
2024/04/12 07:45:38;;;;;;;10.93;5.00;;;11.60;99.90;;;;;;5482067;26;20456;-70
2024/04/12 07:48:25;;;;;;;12.50;5.40;;;11.80;99.90;;;;;;5481750;26;20516;-68
2024/04/12 07:51:00;;;;;;;9.73;5.23;;;11.90;99.90;;;;;;5482594;26;20511;-69
2024/04/12 07:53:34;;;;;;;11.17;5.00;;;12.20;99.90;;;;;;5481854;26;20477;-68
2024/04/12 07:56:14;;;;;;;12.67;5.20;;;12.30;99.90;;;;;;5482277;26;20525;-66
2024/04/12 07:59:01;;;;;;;10.30;4.90;;;12.50;99.90;;;;;;5481799;26;20857;-67
2024/04/12 08:01:30;;;;;;;12.10;4.88;;;12.70;99.90;;;;;;5481278;26;20794;-68
2024/04/12 08:04:05;;;;;;;10.30;4.70;;;12.90;99.90;;;;;;5481626;26;20255;-69
2024/04/12 08:06:36;;;;;;;11.37;4.50;;;12.90;99.90;;;;;;5481648;26;20586;-68
2024/04/12 08:09:21;;;;;;;14.03;5.00;;;13.00;99.90;;;;;;5481970;26;20884;-70
2024/04/12 08:11:51;;;;;;;10.03;4.03;;;13.10;99.90;;;;;;5482108;26;20509;-70
2024/04/12 08:14:22;;;;;;;13.00;4.80;;;13.50;99.90;;;;;;5481389;26;20580;-69
2024/04/12 08:16:53;;;;;;;11.97;4.37;;;13.70;99.90;;;;;;5481308;26;20530;-70
2024/04/12 08:19:37;;;;;;;12.90;5.60;;;13.90;99.90;;;;;;5481978;26;20516;-70
2024/04/12 08:22:06;;;;;;;13.80;5.00;;;14.10;99.90;;;;;;5482109;26;20472;-70
2024/04/12 08:24:40;;;;;;;10.13;4.00;;;14.10;99.90;;;;;;5481712;26;20481;-70
2024/04/12 08:27:11;;;;;;;10.43;4.73;;;14.20;99.90;;;;;;5481719;26;20578;-70
2024/04/12 08:29:40;;;;;;;12.10;4.70;;;14.40;99.70;;;;;;5481787;26;20500;-70
2024/04/12 08:32:13;;;;;;;10.00;4.57;;;14.60;99.90;;;;;;5481650;26;20523;-70
2024/04/12 08:34:44;;;;;;;11.50;5.30;;;14.70;99.90;;;;;;5481742;26;20482;-71
2024/04/12 08:37:16;;;;;;;10.80;4.60;;;14.80;99.90;;;;;;5481483;26;20569;-70
2024/04/12 08:39:52;;;;;;;10.17;4.00;;;14.80;99.90;;;;;;5481668;26;20469;-68
2024/04/12 08:42:28;;;;;;;10.97;4.70;;;15.00;99.90;;;;;;5481811;26;21351;-69
2024/04/12 08:45:12;;;;;;;13.20;5.03;;;15.20;99.80;;;;;;5481533;26;20826;-67
2024/04/12 08:47:51;;;;;;;10.73;4.50;;;15.50;98.20;;;;;;5481342;26;20522;-68
2024/04/12 08:50:23;;;;;;;9.57;4.47;;;16.00;97.30;;;;;;5481844;26;20481;-68
2024/04/12 08:52:53;;;;;;;11.70;4.37;;;16.00;94.90;;;;;;5480925;26;20971;-68
2024/04/12 08:55:29;;;;;;;10.53;4.87;;;16.10;95.30;;;;;;5481390;26;20482;-67
2024/04/12 08:58:00;;;;;;;11.87;4.77;;;16.20;96.70;;;;;;5479636;26;20461;-67
2024/04/12 09:00:32;;;;;;;20.00;6.03;;;16.40;96.80;;;;;;5481606;26;20521;-67
2024/04/12 09:03:02;;;;;;;11.17;5.40;;;16.50;95.30;;;;;;5480977;26;20510;-67
2024/04/12 09:05:35;;;;;;;11.07;5.10;;;16.60;94.40;;;;;;5481015;26;20470;-67
2024/04/12 09:08:05;;;;;;;10.83;4.27;;;16.80;92.00;;;;;;5481090;26;20592;-67
2024/04/12 09:10:39;;;;;;;9.67;4.80;;;17.00;91.90;;;;;;5481552;26;20517;-67
2024/04/12 09:13:14;;;;;;;11.00;5.13;;;17.30;93.30;;;;;;5480876;26;20462;-67
2024/04/12 09:15:45;;;;;;;10.30;5.40;;;17.50;93.00;;;;;;5481414;26;20465;-68
2024/04/12 09:18:15;;;;;;;12.87;5.70;;;17.70;90.90;;;;;;5481094;26;20458;-68
2024/04/12 09:20:52;;;;;;;11.57;5.90;;;17.90;90.40;;;;;;5481429;26;20583;-67
2024/04/12 09:23:32;;;;;;;11.60;5.63;;;18.20;87.80;;;;;;5481580;26;20469;-68
2024/04/12 09:26:21;;;;;;;13.43;5.57;;;18.40;84.00;;;;;;5481574;26;20466;-68
2024/04/12 09:29:01;;;;;;;11.20;5.63;;;18.70;87.10;;;;;;5480622;26;20514;-67
2024/04/12 09:34:29;;;;;;;13.03;6.37;;;19.70;79.70;;;;;;5480621;26;20570;-67
2024/04/12 09:37:28;;;;;;;12.70;7.17;;;20.60;73.30;;;;;;5479417;26;21097;-67
2024/04/12 09:40:04;;;;;;;10.30;6.10;;;20.50;69.30;;;;;;5480590;26;20961;-67
2024/04/12 09:42:44;;;;;;;12.80;5.70;;;20.20;69.20;;;;;;5470214;26;20465;-67
2024/04/12 09:45:19;;;;;;;10.83;6.07;;;20.20;70.70;;;;;;5479801;26;20478;-68
2024/04/12 10:38:54;;;;;;;15.10;7.07;;;22.00;57.00;;;;;;5484989;26;21092;-67
2024/04/12 10:41:26;;;;;;;14.00;7.03;;;22.70;56.90;;;;;;5484727;26;20950;-67
2024/04/12 10:43:57;;;;;;;13.60;7.13;;;23.00;56.30;;;;;;5483067;26;20478;-67
2024/04/12 10:46:27;;;;;;;15.80;8.23;;;22.80;56.40;;;;;;5483830;26;20466;-68
2024/04/12 10:48:55;;;;;;;13.47;7.10;;;23.00;56.70;;;;;;5480806;26;20474;-67
2024/04/12 10:51:28;;;;;;;14.90;6.80;;;23.70;55.60;;;;;;5478154;26;20474;-67
2024/04/12 10:53:57;;;;;;;12.70;7.80;;;24.30;57.30;;;;;;5474872;26;20836;-68
2024/04/12 10:56:29;;;;;;;14.27;7.87;;;24.60;53.30;;;;;;5475821;26;20498;-67
2024/04/12 10:58:59;;;;;;;13.07;6.83;;;24.10;53.60;;;;;;5473813;26;20456;-68
2024/04/12 11:01:30;;;;;;;13.50;7.50;;;23.80;53.60;;;;;;5475694;26;20518;-68
2024/04/12 11:03:57;;;;;;;15.97;7.60;;;23.70;53.70;;;;;;5474405;26;20503;-67
2024/04/12 11:06:34;;;;;;;14.90;7.40;;;23.70;53.50;;;;;;5475665;26;20485;-67
2024/04/12 11:09:04;;;;;;;15.30;7.13;;;23.70;55.10;;;;;;5475357;26;20465;-68
2024/04/12 11:11:38;;;;;;;16.87;9.00;;;24.00;54.20;;;;;;5473086;26;20500;-68
2024/04/12 11:14:15;;;;;;;14.30;8.33;;;23.50;53.10;;;;;;5474078;26;20465;-68
2024/04/12 11:31:14;;;;;;;17.93;8.53;;;22.80;54.80;;;;;;5482350;26;20518;-69
2024/04/12 11:33:52;;;;;;;13.43;8.63;;;22.90;54.50;;;;;;5482021;26;20500;-68
2024/04/12 11:36:41;;;;;;;14.20;8.07;;;22.90;53.70;;;;;;5482424;26;20815;-69
2024/04/12 11:39:17;;;;;;;14.13;7.90;;;23.10;54.00;;;;;;5479263;26;20470;-67
2024/04/12 11:41:45;;;;;;;14.87;8.07;;;23.80;54.00;;;;;;5482478;26;20561;-67
2024/04/12 11:44:17;;;;;;;20.73;8.77;;;24.10;53.40;;;;;;5477517;26;20583;-67
2024/04/12 11:46:45;;;;;;;14.30;7.90;;;23.90;52.30;;;;;;5469511;26;20536;-67
2024/04/12 11:49:25;;;;;;;14.90;8.57;;;24.10;51.50;;;;;;5469946;26;20465;-68
2024/04/12 11:51:55;;;;;;;15.23;7.20;;;23.80;50.20;;;;;;5468633;26;20523;-67
2024/04/12 11:54:29;;;;;;;13.57;7.73;;;24.00;50.60;;;;;;5469652;26;20513;-68
2024/04/12 11:56:59;;;;;;;15.90;7.23;;;24.10;50.00;;;;;;5467509;26;20932;-68
2024/04/12 11:59:29;;;;;;;15.67;6.90;;;24.40;50.10;;;;;;5471268;26;20465;-68
2024/04/12 12:01:59;;;;;;;16.20;7.77;;;25.10;49.70;;;;;;5470007;26;20467;-67
2024/04/12 12:04:29;;;;;;;15.10;7.63;;;24.80;49.30;;;;;;5474058;26;21076;-68
2024/04/12 12:06:59;;;;;;;12.20;7.70;;;24.50;49.90;;;;;;5471675;26;20901;-69
2024/04/12 12:09:36;;;;;;;13.23;7.80;;;24.60;49.20;;;;;;5473901;26;21055;-71
2024/04/12 12:12:10;;;;;;;13.13;7.20;;;24.90;52.40;;;;;;5481509;26;20450;-69
2024/04/12 12:14:41;;;;;;;13.43;7.80;;;26.10;49.10;;;;;;5471566;26;20474;-68
2024/04/12 12:17:09;;;;;;;14.63;8.00;;;26.90;46.30;;;;;;5473663;26;20458;-68
2024/04/12 12:19:39;;;;;;;15.40;7.70;;;26.30;46.50;;;;;;5472095;26;20462;-69
2024/04/12 12:22:10;;;;;;;17.27;8.00;;;26.50;46.50;;;;;;5473953;26;20462;-68
2024/04/12 12:24:42;;;;;;;20.17;7.17;;;26.50;45.30;;;;;;5481582;26;20854;-68
2024/04/12 12:27:09;;;;;;;15.97;8.63;;;26.00;46.30;;;;;;5479084;26;21023;-68
2024/04/12 12:29:42;;;;;;;18.97;8.73;;;25.30;46.00;;;;;;5481292;26;20466;-68
2024/04/12 12:32:09;;;;;;;17.63;8.47;;;25.30;46.00;;;;;;5479854;26;20885;-69
2024/04/12 12:34:41;;;;;;;16.30;8.77;;;25.70;48.50;;;;;;5480881;26;20462;-69
2024/04/12 12:37:09;;;;;;;13.37;7.30;;;26.40;46.00;;;;;;5478848;26;20530;-69
2024/04/12 12:39:41;;;;;;;15.27;9.30;;;27.80;47.00;;;;;;5481316;26;20481;-69
2024/04/12 12:42:09;;;;;;;15.47;8.67;;;28.10;43.10;;;;;;5478914;26;20582;-68
2024/04/12 12:44:40;;;;;;;14.77;7.17;;;27.40;43.70;;;;;;5481075;26;20466;-69
2024/04/12 12:47:08;;;;;;;13.30;7.83;;;27.40;45.60;;;;;;5476811;26;20969;-69
2024/04/12 12:49:46;;;;;;;14.63;7.60;;;28.20;43.40;;;;;;5480063;26;20533;-69
2024/04/12 12:52:14;;;;;;;15.10;8.80;;;27.60;42.80;;;;;;5478097;26;20458;-69
2024/04/12 12:54:47;;;;;;;16.83;8.30;;;27.20;43.70;;;;;;5480358;26;20465;-67
2024/04/12 12:57:14;;;;;;;14.93;8.77;;;27.60;44.90;;;;;;5480807;26;20482;-68
2024/04/12 12:59:45;;;;;;;16.30;8.27;;;28.30;42.50;;;;;;5481216;26;20572;-70
2024/04/12 13:02:14;;;;;;;15.30;8.30;;;28.60;43.00;;;;;;5477619;26;20473;-69
2024/04/12 13:04:46;;;;;;;15.93;8.17;;;29.40;44.00;;;;;;5479226;26;20279;-68
2024/04/12 13:07:16;;;;;;;20.33;7.97;;;29.90;40.80;;;;;;5481013;26;20583;-71
2024/04/12 13:09:53;;;;;;;13.40;8.43;;;29.20;41.50;;;;;;5480414;26;20554;-70
2024/04/12 13:12:28;;;;;;;14.40;7.63;;;27.80;42.40;;;;;;5478475;26;20534;-71
2024/04/12 13:15:00;;;;;;;13.13;6.67;;;27.00;43.20;;;;;;5477802;26;21318;-68
2024/04/12 13:17:27;;;;;;;16.40;6.80;;;26.90;42.60;;;;;;5479892;26;20639;-68
2024/04/12 13:19:57;;;;;;;14.77;6.00;;;27.60;42.20;;;;;;5474677;26;20684;-69
2024/04/12 13:22:24;;;;;;;13.80;6.70;;;27.70;42.30;;;;;;5467247;26;20482;-69
2024/04/12 13:24:56;;;;;;;13.90;6.27;;;27.30;41.30;;;;;;5471516;26;20515;-69
2024/04/12 13:27:25;;;;;;;13.13;6.03;;;28.10;43.60;;;;;;5465792;26;20481;-68
2024/04/12 13:29:55;;;;;;;13.50;5.50;;;29.50;41.40;;;;;;5473146;26;20477;-68
2024/04/12 13:32:23;;;;;;;12.10;5.30;;;30.40;38.80;;;;;;5480849;26;20971;-68
2024/04/12 13:34:54;;;;;;;11.50;4.93;;;30.30;38.80;;;;;;5480054;26;20466;-69
2024/04/12 13:37:25;;;;;;;11.40;4.63;;;29.50;40.00;;;;;;5461381;26;20466;-69
2024/04/12 13:39:57;;;;;;;13.10;5.43;;;28.90;40.00;;;;;;5466671;26;20543;-68
2024/04/12 13:42:25;;;;;;;14.27;5.17;;;27.70;40.90;;;;;;5469554;26;20469;-68
2024/04/12 13:53:12;;;;;;;14.97;4.17;;;27.80;40.30;;;;;;5474957;26;20469;-68
2024/04/12 13:55:46;;;;;;;11.50;3.73;;;26.80;40.70;;;;;;5468171;26;20988;-68
2024/04/12 13:58:13;;;;;;;14.63;4.33;;;26.40;41.80;;;;;;5472360;26;20457;-69
2024/04/12 14:00:48;;;;;;;10.50;3.50;;;26.30;42.70;;;;;;5469764;26;20474;-69
2024/04/12 14:03:23;;;;;;;12.13;4.77;;;26.50;43.10;;;;;;5473567;26;20543;-69
2024/04/12 14:05:56;;;;;;;14.30;3.87;;;26.40;41.50;;;;;;5470305;26;20479;-68
2024/04/12 14:08:28;;;;;;;18.27;5.03;;;26.30;41.70;;;;;;5473150;26;20473;-69
2024/04/12 14:11:02;;;;;;;11.10;3.47;;;26.50;42.60;;;;;;5470365;26;20470;-69
2024/04/12 14:13:29;;;;;;;12.50;4.33;;;27.40;41.20;;;;;;5468661;26;20469;-69
2024/04/12 14:16:01;;;;;;;11.23;3.90;;;27.30;40.50;;;;;;5471554;26;21044;-69
2024/04/12 14:18:30;;;;;;;10.07;3.60;;;26.10;41.70;;;;;;5473101;26;20537;-69
2024/04/12 14:20:58;;;;;;;10.10;3.10;;;26.50;41.40;;;;;;5471701;26;20886;-69
2024/04/12 14:23:29;;;;;;;9.40;2.97;;;27.20;40.30;;;;;;5468840;26;20470;-69
2024/04/12 14:25:59;;;;;;;10.00;2.90;;;26.60;41.50;;;;;;5458289;26;20523;-69